Time;durP1;ratioP1;P1;durP2;ratioP2;P2;SDS_P1;SDS_P2;PMS_P1;PMS_P2;Temp;Humidity;BMP_temperature;BMP_pressure;BME280_temperature;BME280_humidity;BME280_pressure;Samples;Min_cycle;Max_cycle;Signal;HPM_P1;HPM_P2
2023/01/22 00:01:21;;;;;;;34.37;23.20;;;3.80;99.90;;;4.05;80.89;103330.75;5092927;28;20051;-61
2023/01/22 00:03:52;;;;;;;36.13;24.27;;;3.90;99.90;;;4.08;81.32;103330.97;5093018;28;20051;-61
2023/01/22 00:06:22;;;;;;;38.13;23.58;;;4.00;99.90;;;4.12;81.14;103332.91;5092842;28;20115;-61
2023/01/22 00:08:53;;;;;;;34.55;24.15;;;4.00;99.90;;;4.10;80.72;103302.22;5092765;28;20044;-61
2023/01/22 00:11:22;;;;;;;30.67;23.23;;;4.10;99.90;;;4.16;80.65;103319.19;5093109;28;20032;-62
2023/01/22 00:13:51;;;;;;;31.88;22.25;;;4.10;99.90;;;4.28;80.44;103335.66;5092698;28;20079;-61
2023/01/22 00:16:19;;;;;;;31.13;22.03;;;4.10;99.90;;;4.31;80.73;103333.25;5092959;28;20044;-61
2023/01/22 00:18:47;;;;;;;29.47;20.33;;;4.20;99.90;;;4.33;80.27;103338.56;5093181;28;20036;-61
2023/01/22 00:21:16;;;;;;;35.27;21.67;;;4.10;99.90;;;4.29;80.63;103310.38;5093082;28;20039;-61
2023/01/22 00:23:45;;;;;;;28.90;20.53;;;4.30;99.90;;;4.32;80.34;103294.84;5093480;28;20536;-61
2023/01/22 00:26:15;;;;;;;28.53;21.27;;;4.40;99.90;;;4.30;80.01;103293.84;5096769;28;20032;-62
2023/01/22 00:28:46;;;;;;;27.90;20.97;;;4.40;99.90;;;4.34;79.85;103312.47;5078399;28;20490;-62
2023/01/22 00:31:16;;;;;;;27.90;20.38;;;4.30;99.90;;;4.47;79.51;103330.72;5078273;28;20050;-61
2023/01/22 00:33:46;;;;;;;28.90;20.80;;;4.30;99.90;;;4.52;79.71;103324.06;5078103;28;20052;-62
2023/01/22 00:36:18;;;;;;;31.25;21.02;;;4.30;99.90;;;4.51;79.27;103322.22;5096444;28;20059;-62
2023/01/22 00:38:48;;;;;;;31.07;20.00;;;4.40;99.90;;;4.50;79.22;103317.81;5078221;28;20055;-61
2023/01/22 00:41:18;;;;;;;28.80;21.40;;;4.30;99.90;;;4.50;78.94;103328.28;5096454;28;20044;-61
2023/01/22 00:43:49;;;;;;;32.25;21.25;;;4.40;99.90;;;4.26;79.33;103269.19;5096348;28;20048;-61
2023/01/22 00:46:20;;;;;;;26.10;19.27;;;4.40;99.90;;;4.56;79.27;103323.41;5096018;28;20044;-62
2023/01/22 00:48:49;;;;;;;27.90;21.13;;;4.40;99.90;;;4.65;78.92;103319.50;5096189;28;20160;-61
2023/01/22 00:51:18;;;;;;;27.20;18.43;;;4.50;99.90;;;4.45;79.09;103295.66;5096077;28;20089;-61
2023/01/22 00:53:47;;;;;;;27.70;20.00;;;4.50;99.90;;;4.59;79.17;103312.19;5077919;28;20071;-61
2023/01/22 00:56:16;;;;;;;28.17;19.67;;;4.50;99.90;;;4.54;79.43;103309.31;5096047;28;20046;-61
2023/01/22 00:58:45;;;;;;;28.47;18.40;;;4.50;99.90;;;4.50;78.97;103307.34;5096002;28;20048;-61
2023/01/22 01:01:16;;;;;;;26.40;19.00;;;4.40;99.90;;;4.33;79.12;103286.19;5094891;28;20087;-62
2023/01/22 01:03:44;;;;;;;25.43;18.70;;;4.40;99.90;;;4.45;79.20;103297.41;5077752;28;20117;-61
2023/01/22 01:06:16;;;;;;;23.70;17.33;;;4.40;99.90;;;4.41;79.85;103301.53;5077659;28;20385;-61
2023/01/22 01:08:47;;;;;;;23.57;17.97;;;4.30;99.90;;;4.35;80.01;103311.66;5095805;28;20059;-61
2023/01/22 01:11:18;;;;;;;24.73;18.43;;;4.30;99.90;;;4.42;79.55;103298.09;5095774;28;20390;-61
2023/01/22 01:13:46;;;;;;;24.97;17.97;;;4.30;99.90;;;4.38;79.02;103295.19;5095797;28;20064;-61
2023/01/22 01:16:19;;;;;;;24.83;17.77;;;4.30;99.90;;;4.39;79.38;103312.75;5095452;28;20032;-61
2023/01/22 01:18:48;;;;;;;22.20;16.20;;;4.40;99.90;;;4.20;79.22;103289.78;5095324;28;20557;-63
2023/01/22 01:21:18;;;;;;;21.63;17.63;;;4.30;99.90;;;4.21;79.00;103286.34;5077511;28;20047;-61
2023/01/22 01:23:46;;;;;;;21.83;17.23;;;4.40;99.90;;;4.36;79.28;103310.84;5095508;28;20044;-61
2023/01/22 01:26:17;;;;;;;19.63;15.40;;;4.30;99.90;;;4.34;78.71;103311.56;5077306;28;20036;-61
2023/01/22 01:28:46;;;;;;;18.93;15.17;;;4.30;99.90;;;4.29;78.76;103311.31;5095531;28;20052;-61
2023/01/22 01:31:17;;;;;;;20.47;15.90;;;4.20;99.90;;;4.19;78.72;103279.22;5077495;28;20067;-61
2023/01/22 01:33:46;;;;;;;20.97;16.33;;;4.20;99.90;;;4.36;78.97;103297.75;5095345;28;20139;-61
2023/01/22 01:36:17;;;;;;;17.07;15.00;;;4.30;99.90;;;4.44;78.28;103299.09;5094733;28;20048;-62
2023/01/22 01:39:05;;;;;;;;;;;4.40;99.90;;;4.54;78.05;103297.94;5095308;28;20377;-61
2023/01/22 01:41:34;;;;;;;19.70;15.97;;;4.50;99.90;;;4.63;77.93;103300.19;5076973;28;19924;-61
2023/01/22 01:44:11;;;;;;;20.07;15.27;;;4.60;99.90;;;4.62;77.50;103295.75;5095097;28;20139;-62
2023/01/22 01:46:47;;;;;;;18.97;15.87;;;4.60;99.90;;;4.62;77.45;103296.66;5094831;28;20086;-63
2023/01/22 01:49:23;;;;;;;16.90;14.53;;;4.60;99.90;;;4.56;76.85;103297.22;5095003;28;20062;-62
2023/01/22 01:51:54;;;;;;;17.50;14.97;;;4.50;99.90;;;4.67;76.75;103284.72;5094963;28;20076;-61
2023/01/22 01:54:22;;;;;;;17.53;15.40;;;4.60;99.90;;;4.67;76.58;103291.66;5094913;28;20044;-61
2023/01/22 01:56:57;;;;;;;19.07;15.83;;;4.60;99.90;;;4.64;76.80;103274.06;5094588;28;20507;-62
2023/01/22 01:59:26;;;;;;;18.87;15.40;;;4.60;99.90;;;4.75;76.85;103291.31;5095145;28;20036;-62
2023/01/22 02:01:55;;;;;;;19.10;15.33;;;4.60;99.90;;;4.73;76.38;103282.44;5094762;28;20075;-61
2023/01/22 02:04:24;;;;;;;19.63;15.35;;;4.60;99.90;;;4.78;76.54;103288.84;5094745;28;20047;-61
2023/01/22 02:06:54;;;;;;;18.23;14.93;;;4.70;99.90;;;4.82;76.34;103282.97;5076596;28;20078;-61
2023/01/22 02:09:22;;;;;;;18.00;14.87;;;4.70;99.90;;;4.90;75.72;103281.69;5094346;28;20404;-61
2023/01/22 02:11:52;;;;;;;17.70;15.27;;;4.80;99.90;;;4.89;75.68;103273.75;5094490;28;20040;-61
2023/01/22 02:14:26;;;;;;;17.10;13.97;;;4.80;99.90;;;4.86;75.21;103276.22;5094830;28;20150;-61
2023/01/22 02:17:06;;;;;;;16.20;14.50;;;4.80;99.90;;;4.78;75.37;103235.53;5076567;28;20105;-61
2023/01/22 02:19:34;;;;;;;15.88;14.18;;;4.90;99.90;;;4.65;75.22;103204.19;5076290;28;20570;-61
2023/01/22 02:22:12;;;;;;;16.03;14.13;;;4.90;99.90;;;4.80;75.26;103240.03;5094420;28;20080;-62
2023/01/22 02:24:40;;;;;;;16.13;14.27;;;4.90;99.90;;;5.02;75.16;103265.75;5094131;28;20517;-62
2023/01/22 02:27:09;;;;;;;16.17;13.90;;;4.90;99.90;;;4.85;74.71;103238.59;5076149;28;20047;-61
2023/01/22 02:29:38;;;;;;;16.27;14.53;;;4.90;99.90;;;5.01;74.77;103256.09;5094189;28;20551;-61
2023/01/22 02:32:09;;;;;;;15.70;14.10;;;5.00;99.90;;;5.02;74.72;103257.88;5076043;28;20090;-61
2023/01/22 02:34:38;;;;;;;15.93;13.53;;;5.00;99.90;;;4.99;74.41;103252.47;5075646;28;20071;-62
2023/01/22 02:37:08;;;;;;;17.17;14.47;;;4.90;99.90;;;5.07;74.24;103275.69;5092962;28;20047;-61
2023/01/22 02:39:37;;;;;;;15.35;13.75;;;5.00;99.90;;;4.03;74.13;103060.06;5075980;28;20139;-61
2023/01/22 02:42:08;;;;;;;18.23;14.63;;;5.10;99.90;;;5.14;74.37;103259.50;5075926;28;20051;-61
2023/01/22 02:44:38;;;;;;;15.33;13.73;;;5.10;99.90;;;5.14;74.04;103261.19;5092797;28;20050;-61
2023/01/22 02:47:06;;;;;;;16.07;13.57;;;5.00;99.90;;;5.17;73.89;103261.38;5093055;28;20058;-61
2023/01/22 02:49:35;;;;;;;17.53;13.87;;;5.00;99.90;;;5.18;73.69;103256.22;5094047;28;20036;-62
2023/01/22 02:52:03;;;;;;;15.57;13.67;;;5.00;99.90;;;5.18;73.98;103264.09;5075927;28;20052;-61
2023/01/22 02:54:33;;;;;;;17.50;13.47;;;5.10;99.90;;;5.13;73.77;103256.78;5075575;28;20055;-61
2023/01/22 02:57:02;;;;;;;16.23;12.98;;;5.00;99.90;;;5.16;73.96;103251.69;5075794;28;20093;-61
2023/01/22 02:59:30;;;;;;;15.60;13.97;;;5.00;99.90;;;5.07;74.12;103224.97;5075525;28;20129;-61
2023/01/22 03:02:01;;;;;;;17.87;13.83;;;5.10;99.90;;;5.23;73.78;103260.00;5075794;28;20052;-61
2023/01/22 03:04:29;;;;;;;15.50;13.90;;;5.10;99.90;;;5.24;73.71;103253.03;5075836;28;20440;-61
2023/01/22 03:06:58;;;;;;;15.43;13.83;;;5.10;99.90;;;5.15;73.52;103250.78;5094134;28;20132;-62
2023/01/22 03:09:28;;;;;;;14.75;12.60;;;5.10;99.90;;;5.25;73.24;103260.06;5075612;28;20052;-61
2023/01/22 03:11:59;;;;;;;14.90;13.00;;;5.10;99.90;;;5.35;73.13;103260.69;5075539;28;20094;-62
2023/01/22 03:22:51;;;;;;;15.75;13.65;;;5.20;99.90;;;5.34;72.94;103252.72;5092492;28;20082;-61
2023/01/22 03:25:20;;;;;;;16.47;13.40;;;5.20;99.90;;;5.32;72.92;103249.13;5093322;28;20074;-61
2023/01/22 03:28:15;;;;;;;16.43;13.73;;;5.20;99.90;;;5.30;72.76;103246.38;5075432;28;20051;-62
2023/01/22 03:30:48;;;;;;;16.10;14.13;;;5.20;99.90;;;5.22;72.94;103244.19;5092178;28;20131;-62
2023/01/22 03:33:16;;;;;;;16.80;14.23;;;5.10;99.90;;;5.34;72.92;103245.72;5075340;28;20044;-61
2023/01/22 03:35:49;;;;;;;17.33;13.20;;;5.20;99.90;;;5.35;72.90;103246.66;5074927;28;20063;-61
2023/01/22 03:38:20;;;;;;;14.85;12.82;;;5.20;99.90;;;5.30;72.96;103245.50;5075252;28;20408;-61
2023/01/22 03:40:48;;;;;;;17.30;14.20;;;5.20;99.90;;;5.23;73.04;103235.47;5075370;28;20044;-61
2023/01/22 03:43:18;;;;;;;14.70;13.20;;;5.10;99.90;;;5.27;72.98;103240.97;5093280;28;20093;-61
2023/01/22 03:45:47;;;;;;;15.35;13.73;;;5.10;99.90;;;5.26;73.01;103243.53;5075265;28;20524;-61
2023/01/22 03:48:19;;;;;;;14.93;13.37;;;5.10;99.90;;;5.22;73.21;103238.94;5075286;28;20048;-62
2023/01/22 03:50:48;;;;;;;16.15;13.63;;;5.10;99.90;;;5.34;72.91;103239.59;5075297;28;20079;-61
2023/01/22 03:53:16;;;;;;;15.38;13.75;;;5.10;99.90;;;5.27;73.02;103233.09;5075113;28;20489;-61
2023/01/22 03:55:45;;;;;;;16.52;13.73;;;5.10;99.90;;;5.28;73.08;103232.28;5075033;28;20048;-62
2023/01/22 03:58:13;;;;;;;16.87;13.53;;;5.10;99.90;;;5.32;73.03;103239.50;5074969;28;20131;-61
2023/01/22 04:00:43;;;;;;;15.50;13.43;;;5.20;99.90;;;5.30;73.00;103238.50;5078669;28;20048;-61
2023/01/22 04:03:12;;;;;;;16.30;13.30;;;5.20;99.90;;;5.26;72.92;103239.19;5078919;28;20051;-62
2023/01/22 04:05:41;;;;;;;16.02;13.35;;;5.20;99.90;;;5.30;72.80;103230.63;5078842;28;20138;-61
2023/01/22 04:08:09;;;;;;;17.63;14.63;;;5.20;99.90;;;5.30;73.24;103232.38;5097019;28;20043;-62
2023/01/22 04:10:43;;;;;;;15.87;13.00;;;5.20;99.90;;;5.03;73.35;103202.88;5078536;28;20375;-62
2023/01/22 04:13:11;;;;;;;14.20;12.70;;;5.10;99.90;;;5.27;72.92;103224.31;5078327;28;20048;-62
2023/01/22 04:15:45;;;;;;;15.83;13.03;;;5.10;99.90;;;5.27;72.50;103213.84;5095388;28;20332;-61
2023/01/22 04:18:33;;;;;;;16.08;14.45;;;5.10;99.90;;;5.24;72.40;103209.34;5096216;28;20273;-61
2023/01/22 04:21:15;;;;;;;16.17;13.13;;;5.20;99.90;;;5.24;72.75;103213.69;5078616;28;20056;-61
2023/01/22 04:23:52;;;;;;;14.68;13.07;;;5.20;99.90;;;5.32;72.64;103212.38;5078741;28;20044;-62
2023/01/22 04:26:21;;;;;;;16.83;13.57;;;5.20;99.90;;;5.21;72.30;103213.50;5096579;28;20455;-61
2023/01/22 04:28:49;;;;;;;16.77;12.77;;;5.10;99.90;;;5.29;72.10;103212.19;5078365;28;20445;-61
2023/01/22 04:31:22;;;;;;;15.00;12.57;;;5.20;99.90;;;5.21;72.54;103211.78;5078445;28;20117;-62
2023/01/22 04:34:13;;;;;;;13.30;11.93;;;5.20;99.90;;;5.15;72.44;103207.94;5078176;28;20147;-61
2023/01/22 04:36:45;;;;;;;12.97;11.57;;;5.00;99.90;;;5.02;72.21;103185.38;5095130;28;20409;-61
2023/01/22 04:39:14;;;;;;;13.47;11.90;;;5.00;99.90;;;5.18;72.48;103203.75;5078184;28;20044;-61
2023/01/22 04:41:42;;;;;;;13.23;11.40;;;5.10;99.90;;;5.01;72.13;103196.69;5078232;28;20646;-61
2023/01/22 04:44:11;;;;;;;13.07;11.70;;;5.10;99.90;;;5.09;72.13;103216.34;5077814;28;20079;-61
2023/01/22 04:46:43;;;;;;;14.83;11.70;;;5.10;99.90;;;5.14;72.25;103204.41;5078113;28;20062;-61
2023/01/22 04:49:13;;;;;;;13.40;12.07;;;5.00;99.90;;;4.81;72.17;103147.47;5078172;28;20048;-63
2023/01/22 04:51:44;;;;;;;14.07;12.10;;;5.10;99.90;;;5.17;71.91;103208.91;5096184;28;20094;-61
2023/01/22 04:54:13;;;;;;;13.43;12.03;;;5.10;99.90;;;5.15;72.00;103208.81;5077920;28;20089;-62
2023/01/22 04:56:41;;;;;;;14.00;11.63;;;5.00;99.90;;;4.89;71.75;103158.38;5077985;28;20072;-62
2023/01/22 04:59:10;;;;;;;15.57;12.40;;;5.00;99.90;;;5.13;72.00;103209.56;5094739;28;20044;-61
2023/01/22 05:01:39;;;;;;;13.40;11.23;;;5.00;99.90;;;5.16;72.30;103204.47;5077930;28;20079;-62
2023/01/22 05:04:09;;;;;;;15.87;12.87;;;5.00;99.90;;;5.17;72.01;103198.41;5077848;28;20048;-61
2023/01/22 05:06:37;;;;;;;14.63;12.70;;;5.10;99.90;;;5.14;72.12;103198.25;5077730;28;20047;-61
2023/01/22 05:09:05;;;;;;;17.73;13.40;;;5.00;99.90;;;5.13;71.53;103197.34;5096123;28;20050;-61
2023/01/22 05:11:48;;;;;;;13.77;12.37;;;5.00;99.90;;;5.14;71.88;103195.63;5076437;28;20052;-61
2023/01/22 05:14:18;;;;;;;13.87;12.07;;;5.00;99.90;;;5.13;71.92;103199.09;5077606;28;20044;-61
2023/01/22 05:16:48;;;;;;;;;;;5.00;99.90;;;5.07;71.56;103196.13;5077981;28;20032;-61
2023/01/22 05:19:18;;;;;;;16.13;12.97;;;5.10;99.90;;;4.87;71.89;103163.56;5095391;28;20351;-62
2023/01/22 05:21:48;;;;;;;14.00;12.20;;;5.10;99.90;;;5.09;72.02;103199.72;5077457;28;20101;-61
2023/01/22 05:24:18;;;;;;;13.93;12.43;;;5.00;99.90;;;5.10;71.47;103198.91;5077466;28;20086;-61
2023/01/22 05:26:47;;;;;;;13.67;12.27;;;5.00;99.90;;;4.92;71.61;103187.38;5095550;28;20389;-62
2023/01/22 05:29:24;;;;;;;13.73;11.90;;;5.00;99.90;;;4.98;71.72;103192.97;5077413;28;20036;-61
2023/01/22 05:32:07;;;;;;;14.77;13.20;;;4.90;99.90;;;4.99;71.93;103206.19;5077386;28;20047;-61
2023/01/22 05:34:42;;;;;;;14.53;12.37;;;4.90;99.90;;;5.02;71.91;103198.47;5076962;28;20051;-61
2023/01/22 05:37:12;;;;;;;14.20;12.63;;;4.90;99.90;;;5.08;71.94;103204.06;5077430;28;20401;-61
2023/01/22 05:39:40;;;;;;;15.40;12.87;;;4.90;99.90;;;5.06;71.93;103200.47;5077300;28;20046;-61
2023/01/22 05:42:14;;;;;;;14.48;12.02;;;4.90;99.90;;;4.98;71.88;103208.69;5077236;28;20379;-61
2023/01/22 05:44:45;;;;;;;15.80;12.70;;;4.90;99.90;;;5.10;71.92;103210.31;5077007;28;20051;-61
2023/01/22 05:47:15;;;;;;;13.87;12.40;;;4.90;99.90;;;5.06;72.04;103205.69;5076971;28;20109;-61
2023/01/22 05:50:06;;;;;;;13.37;12.07;;;4.90;99.90;;;4.84;71.61;103163.34;5094492;28;20105;-62
2023/01/22 05:52:35;;;;;;;14.30;11.60;;;4.90;99.90;;;4.81;71.84;103160.59;5076930;28;20044;-61
2023/01/22 05:55:05;;;;;;;14.73;11.90;;;5.00;99.90;;;5.09;72.10;103204.97;5076694;28;20052;-61
2023/01/22 05:57:40;;;;;;;13.70;12.30;;;4.90;99.90;;;5.05;71.90;103213.50;5076931;28;20489;-61
2023/01/22 06:00:12;;;;;;;13.63;12.10;;;4.90;99.90;;;4.90;72.00;103194.25;5076724;28;20068;-61
2023/01/22 06:02:56;;;;;;;13.47;11.67;;;4.90;99.90;;;4.97;72.36;103217.41;5076746;28;20040;-62
2023/01/22 06:05:26;;;;;;;15.48;12.30;;;4.90;99.90;;;4.95;72.29;103219.03;5076719;28;20425;-61
2023/01/22 06:08:02;;;;;;;15.00;12.13;;;4.80;99.90;;;4.96;72.73;103239.19;5076601;28;20072;-61
2023/01/22 06:10:37;;;;;;;13.70;11.70;;;4.80;99.90;;;5.08;72.29;103229.38;5076463;28;20139;-61
2023/01/22 06:13:06;;;;;;;16.60;12.60;;;4.90;99.90;;;5.12;72.31;103223.50;5076374;28;20494;-61
2023/01/22 06:15:34;;;;;;;15.47;12.27;;;5.00;99.90;;;5.03;72.17;103225.63;5076356;28;20044;-63
2023/01/22 06:18:16;;;;;;;15.10;12.17;;;4.90;99.90;;;4.75;72.14;103168.09;5076366;28;20047;-62
2023/01/22 06:20:46;;;;;;;15.03;12.20;;;5.00;99.90;;;5.06;72.79;103223.16;5093247;28;20382;-62
2023/01/22 06:23:15;;;;;;;13.85;12.13;;;4.90;99.90;;;5.06;72.67;103225.78;5093989;28;20502;-63
2023/01/22 06:25:43;;;;;;;13.50;11.77;;;5.00;99.90;;;5.04;72.49;103217.81;5076129;28;20040;-62
2023/01/22 06:28:17;;;;;;;14.37;12.70;;;4.90;99.90;;;4.79;72.53;103190.16;5076246;28;20052;-62
2023/01/22 06:30:46;;;;;;;13.03;11.70;;;4.90;99.90;;;4.91;72.68;103207.47;5075631;28;20052;-63
2023/01/22 06:33:15;;;;;;;13.00;11.60;;;4.90;99.90;;;4.96;73.23;103215.56;5075992;28;20097;-61
2023/01/22 06:35:43;;;;;;;15.23;12.70;;;4.90;99.90;;;4.95;72.97;103219.03;5072212;28;20106;-62
2023/01/22 06:38:13;;;;;;;16.80;12.97;;;4.90;99.90;;;4.52;73.11;103143.22;5072847;28;20132;-62
2023/01/22 06:40:42;;;;;;;15.52;12.77;;;4.90;99.90;;;5.01;73.39;103222.00;5072573;28;20055;-62
2023/01/22 06:43:10;;;;;;;15.73;12.57;;;4.90;99.90;;;4.99;73.40;103219.31;5072506;28;20106;-62
2023/01/22 06:45:39;;;;;;;15.77;13.07;;;4.90;99.90;;;5.03;73.68;103221.25;5072395;28;20044;-62
2023/01/22 06:48:09;;;;;;;15.43;13.23;;;4.90;99.90;;;5.02;73.29;103218.53;5072484;28;20048;-62
2023/01/22 06:50:38;;;;;;;14.60;12.37;;;5.00;99.90;;;4.90;73.56;103215.22;5072168;28;20079;-62
2023/01/22 06:53:07;;;;;;;16.67;12.80;;;4.90;99.90;;;4.88;74.03;103225.66;5072311;28;20043;-62
2023/01/22 06:55:38;;;;;;;16.37;13.57;;;4.80;99.90;;;4.48;73.89;103166.53;5072205;28;20131;-62
2023/01/22 06:58:06;;;;;;;15.67;13.27;;;4.80;99.90;;;4.68;74.27;103207.00;5072273;28;20048;-62
2023/01/22 07:00:35;;;;;;;14.77;12.30;;;4.80;99.90;;;4.81;74.08;103214.72;5072258;28;20052;-62
2023/01/22 07:03:07;;;;;;;16.33;13.07;;;4.80;99.90;;;4.58;74.64;103222.22;5072340;28;20132;-62
2023/01/22 07:05:35;;;;;;;15.63;12.90;;;4.60;99.90;;;4.66;74.85;103221.72;5073328;28;20150;-62
2023/01/22 07:08:04;;;;;;;16.57;13.33;;;4.60;99.90;;;4.59;74.87;103212.59;5073412;28;20433;-62
2023/01/22 07:10:33;;;;;;;15.47;12.10;;;4.60;99.90;;;4.60;75.06;103214.44;5073018;28;20080;-61
2023/01/22 07:13:03;;;;;;;16.50;12.90;;;4.60;99.90;;;4.62;75.00;103227.59;5073081;28;20521;-61
2023/01/22 07:15:32;;;;;;;14.27;11.10;;;4.50;99.90;;;4.48;74.31;103212.00;5072104;28;20045;-62
2023/01/22 07:18:00;;;;;;;12.87;10.67;;;4.50;99.90;;;4.41;74.54;103219.41;5073066;28;20413;-62
2023/01/22 07:20:29;;;;;;;14.13;11.07;;;4.40;99.90;;;4.36;74.80;103228.72;5073041;28;20098;-61
2023/01/22 07:22:58;;;;;;;13.63;10.87;;;4.30;99.90;;;4.16;75.04;103177.78;5072979;28;20583;-61
2023/01/22 07:25:27;;;;;;;12.75;10.43;;;4.30;99.90;;;4.37;74.48;103230.53;5073339;28;20052;-62
2023/01/22 07:27:59;;;;;;;12.43;11.10;;;4.40;99.90;;;2.83;74.87;102961.34;5073222;28;20037;-62
2023/01/22 07:30:30;;;;;;;15.90;10.80;;;4.30;99.90;;;4.35;74.85;103227.84;5072969;28;20136;-62
2023/01/22 07:33:00;;;;;;;15.73;9.90;;;4.30;99.90;;;4.43;74.96;103237.00;5073669;28;20048;-62
2023/01/22 07:35:30;;;;;;;11.27;10.03;;;4.40;99.90;;;4.38;74.78;103225.38;5086502;28;20062;-62
2023/01/22 07:37:59;;;;;;;13.47;10.23;;;4.40;99.90;;;4.53;74.64;103234.13;5099723;28;20497;-62
2023/01/22 07:40:28;;;;;;;15.70;10.80;;;4.50;99.90;;;4.56;74.53;103228.16;5100027;28;20043;-62
2023/01/22 07:42:57;;;;;;;13.40;9.63;;;4.50;99.90;;;4.57;74.31;103259.69;5099748;28;20032;-62
2023/01/22 07:45:26;;;;;;;11.63;10.40;;;4.60;99.90;;;4.51;74.46;103219.13;5100010;28;20054;-62
2023/01/22 07:47:58;;;;;;;14.87;11.07;;;4.60;99.90;;;4.57;74.33;103261.41;5099684;28;20222;-62
2023/01/22 07:50:29;;;;;;;14.83;10.77;;;4.60;99.90;;;4.61;74.23;103262.50;5100009;28;20097;-62
2023/01/22 07:53:00;;;;;;;15.30;10.43;;;4.60;99.90;;;4.61;74.32;103255.53;5081684;28;20060;-62
2023/01/22 07:55:30;;;;;;;13.23;10.97;;;4.60;99.90;;;4.67;74.43;103250.63;5099570;28;20044;-62
2023/01/22 07:57:59;;;;;;;14.55;11.20;;;4.60;99.90;;;4.73;74.49;103260.56;5099527;28;20043;-63
2023/01/22 08:00:28;;;;;;;13.07;11.33;;;4.70;99.90;;;4.63;74.12;103245.16;5099523;28;20410;-62
2023/01/22 08:02:57;;;;;;;15.30;10.37;;;4.80;99.90;;;4.65;74.43;103243.50;5099469;28;20040;-61
2023/01/22 08:05:26;;;;;;;12.20;10.88;;;4.70;99.90;;;4.77;74.50;103254.69;5099479;28;20498;-61
2023/01/22 08:07:54;;;;;;;15.70;11.57;;;4.70;99.90;;;4.84;74.15;103262.13;5099742;28;20471;-61
2023/01/22 08:10:23;;;;;;;12.60;10.33;;;4.80;99.90;;;4.76;74.48;103258.16;5099405;28;20048;-62
2023/01/22 08:12:53;;;;;;;11.93;10.03;;;4.80;99.90;;;4.79;73.93;103266.16;5099695;28;20473;-61
2023/01/22 08:15:22;;;;;;;13.10;10.30;;;4.80;99.90;;;4.77;74.32;103270.41;5099564;28;20066;-62
2023/01/22 08:17:51;;;;;;;14.40;11.03;;;4.70;99.90;;;4.76;74.31;103253.81;5099388;28;20036;-62
2023/01/22 08:20:21;;;;;;;16.00;10.77;;;4.80;99.90;;;4.58;74.08;103227.44;5099296;28;20401;-63
2023/01/22 08:22:50;;;;;;;10.03;9.10;;;4.70;99.90;;;4.66;74.54;103261.03;5099902;28;20056;-62
2023/01/22 08:25:18;;;;;;;19.20;11.33;;;4.70;99.90;;;4.79;74.17;103268.78;5099475;28;20028;-63
2023/01/22 08:27:46;;;;;;;12.13;9.53;;;4.80;99.90;;;4.72;73.87;103262.31;5099311;28;20040;-63
2023/01/22 08:30:15;;;;;;;14.90;10.03;;;4.70;99.90;;;4.82;74.21;103258.50;5099569;28;20042;-63
2023/01/22 08:32:45;;;;;;;14.03;9.90;;;4.80;99.90;;;2.60;74.06;102877.25;5081618;28;20063;-61
2023/01/22 08:35:14;;;;;;;13.00;10.20;;;4.70;99.90;;;4.85;74.06;103269.16;5099338;28;20075;-61
2023/01/22 08:37:43;;;;;;;13.57;9.83;;;4.80;99.90;;;3.85;73.98;103092.13;5099097;28;20770;-61
2023/01/22 08:40:13;;;;;;;12.18;9.90;;;4.80;99.90;;;4.72;74.36;103254.44;5099360;28;20040;-61
2023/01/22 08:42:41;;;;;;;15.10;10.40;;;4.80;99.90;;;4.66;74.30;103274.16;5099728;28;20082;-62
2023/01/22 08:45:11;;;;;;;13.13;9.97;;;4.70;99.90;;;4.74;74.25;103275.50;5097807;28;20047;-62
2023/01/22 08:47:39;;;;;;;15.27;10.23;;;4.70;99.90;;;4.69;74.55;103269.97;5095933;28;20036;-62
2023/01/22 08:50:09;;;;;;;12.03;9.70;;;4.70;99.90;;;4.74;74.51;103265.03;5096376;28;20063;-63
2023/01/22 08:52:37;;;;;;;10.90;9.63;;;4.70;99.90;;;4.71;74.56;103270.06;5096131;28;20086;-62
2023/01/22 08:55:09;;;;;;;14.00;9.50;;;4.70;99.90;;;4.80;74.93;103278.47;5095865;28;20066;-62
2023/01/22 08:57:38;;;;;;;13.80;10.10;;;4.70;99.90;;;4.68;75.06;103276.06;5095927;28;20044;-63
2023/01/22 09:00:10;;;;;;;13.23;10.43;;;4.70;99.90;;;4.70;74.65;103276.13;5096273;28;20085;-63
2023/01/22 09:02:38;;;;;;;13.20;10.13;;;4.60;99.90;;;4.75;74.83;103280.81;5095974;28;20082;-64
2023/01/22 09:05:08;;;;;;;12.90;10.00;;;4.60;99.90;;;4.75;75.01;103275.59;5095591;28;20508;-63
2023/01/22 09:07:36;;;;;;;11.48;10.18;;;4.70;99.90;;;4.76;74.81;103280.03;5095793;28;20131;-63
2023/01/22 09:10:11;;;;;;;13.07;10.10;;;4.70;99.90;;;4.80;74.69;103281.97;5095355;28;20032;-63
2023/01/22 09:12:40;;;;;;;13.73;10.83;;;4.70;99.90;;;4.82;74.61;103285.59;5095687;28;20513;-63
2023/01/22 09:15:09;;;;;;;12.33;10.47;;;4.80;99.90;;;4.92;74.81;103292.25;5095365;28;20508;-64
2023/01/22 09:17:38;;;;;;;14.60;10.33;;;4.80;99.90;;;4.86;74.61;103277.09;5077409;28;20052;-63
2023/01/22 09:20:07;;;;;;;13.30;9.57;;;4.80;99.90;;;4.78;74.58;103290.59;5095302;28;20412;-63
2023/01/22 09:22:36;;;;;;;14.07;10.70;;;4.90;99.90;;;4.84;74.45;103275.22;5095216;28;20077;-63
2023/01/22 09:25:05;;;;;;;15.53;10.07;;;4.90;99.90;;;4.92;74.96;103292.25;5095297;28;20509;-63
2023/01/22 09:27:35;;;;;;;12.53;10.20;;;4.90;99.90;;;4.77;74.55;103273.03;5077173;28;20048;-62
2023/01/22 09:30:05;;;;;;;15.40;11.50;;;4.90;99.90;;;4.90;75.03;103288.66;5095665;28;20486;-63
2023/01/22 09:32:33;;;;;;;14.38;10.32;;;4.90;99.90;;;4.80;74.64;103287.22;5095520;28;20074;-64
2023/01/22 09:35:02;;;;;;;14.80;11.03;;;4.80;99.90;;;4.70;74.56;103286.63;5094880;28;20476;-64
2023/01/22 09:37:30;;;;;;;14.60;10.13;;;4.70;99.90;;;4.67;74.82;103289.03;5094805;28;20529;-64
2023/01/22 09:39:59;;;;;;;15.47;10.43;;;4.70;99.90;;;4.67;74.87;103295.19;5094856;28;20039;-64
2023/01/22 09:42:34;;;;;;;14.93;11.60;;;4.70;99.90;;;4.67;74.90;103286.44;5094888;28;20040;-64
2023/01/22 09:45:10;;;;;;;13.57;10.80;;;4.60;99.90;;;4.86;74.92;103302.44;5095205;28;20048;-62
2023/01/22 09:47:46;;;;;;;12.43;11.13;;;4.80;99.90;;;4.76;74.59;103310.56;5095186;28;20040;-63
2023/01/22 09:50:21;;;;;;;13.37;10.63;;;4.70;99.90;;;4.85;74.69;103306.75;5094878;28;20522;-62
2023/01/22 09:52:52;;;;;;;16.77;10.30;;;4.80;99.90;;;4.81;73.98;103298.63;5077076;28;20383;-62
2023/01/22 09:55:24;;;;;;;12.03;10.80;;;4.90;99.90;;;4.76;74.32;103307.97;5094720;28;20477;-63
2023/01/22 09:57:56;;;;;;;11.70;10.50;;;4.80;99.90;;;4.83;74.39;103313.63;5093822;28;20071;-64
2023/01/22 10:00:35;;;;;;;15.80;10.57;;;4.80;99.90;;;4.82;74.66;103300.44;5094871;28;20051;-63
2023/01/22 10:03:10;;;;;;;13.13;10.37;;;4.90;99.90;;;4.95;74.21;103329.19;5094544;28;20090;-63
2023/01/22 10:05:42;;;;;;;13.00;10.87;;;4.90;99.90;;;2.90;73.85;102992.25;5094453;28;20052;-63
2023/01/22 10:08:18;;;;;;;14.73;10.97;;;4.90;99.90;;;4.88;73.81;103327.03;5094237;28;20118;-63
2023/01/22 10:10:47;;;;;;;11.57;9.00;;;4.80;99.90;;;4.96;74.01;103333.59;5094547;28;20051;-64
2023/01/22 10:13:20;;;;;;;13.47;10.20;;;4.90;99.90;;;4.86;73.71;103312.91;5094261;28;20040;-63
2023/01/22 10:15:51;;;;;;;15.00;10.60;;;4.90;99.90;;;4.83;73.79;103317.97;5076444;28;20398;-63
2023/01/22 10:18:33;;;;;;;12.47;10.20;;;4.80;99.90;;;4.77;74.22;103325.47;5094188;28;20439;-62
2023/01/22 10:21:06;;;;;;;12.57;10.37;;;4.70;99.90;;;4.68;73.88;103293.50;5094145;28;20085;-62
2023/01/22 10:23:35;;;;;;;12.43;10.40;;;4.80;99.90;;;4.69;73.85;103292.66;5093976;28;20040;-62
2023/01/22 10:26:13;;;;;;;14.47;10.27;;;4.80;99.90;;;4.91;73.80;103308.84;5094370;28;20063;-63
2023/01/22 10:28:48;;;;;;;12.63;10.47;;;4.90;99.90;;;4.79;73.99;103302.88;5094052;28;20051;-62
2023/01/22 10:31:28;;;;;;;13.90;11.07;;;4.90;99.90;;;4.94;74.19;103311.63;5093920;28;20048;-68
2023/01/22 10:33:59;;;;;;;12.43;10.45;;;4.90;99.90;;;4.90;74.03;103309.63;5093806;28;20552;-63
2023/01/22 10:36:28;;;;;;;;;;;4.90;99.90;;;4.78;74.00;103291.47;5076196;28;20080;-61